Freeport, Pennsylvania
Current Conditions -  °F | °C
As of 10:55 AM on Thursday 27 Nov 2014 (Local Time) from KBTP Reporting Station
Overcast Overcast  
Wind Chill: 30°   Ceiling: 1000
Heat Index: 34°   Visibility: 9mi
Dew Point: 28°   Wind: 5mph
Humidity: 81%   Direction: 280°W
Pressure: 30.07"   Gusts: NA
Location:  40.67°N, 79.68°W
Report Text: KBTP 271555Z AUTO 28004KT 9SM OVC010 01/M02 A3007 RMK AO1
Loading
Personal Weather Stations






























Interactive Weather Map New forecast layout! Learn more

10-Day Weather Forecast

Advertisements
Track Severe Weather on mobile